KLAW/LAW METAR and TAF weather

Enter ICAO airport designator
Station Type Date Time Source
KLAW METAR 2021/07/27 20:53 UTC NOAA

KLAW 272053Z 07003KT 10SM CLR 36/19 A2999 RMK AO2 SLP140 T03610189 58010


Station Type Date Time Source
KLAW Decoded METAR 2021/07/27 20:53 UTC NOAA

LAWTON - FORT SILL REGIONAL, OK, United States (KLAW) 34-34N 98-25W 337M
Jul 27, 2021 - 04:53 PM EDT / 2021.07.27 2053 UTC
Wind: from the ENE (070 degrees) at 3 MPH (3 KT):0
Visibility: 10 mile(s):0
Sky conditions: clear
Temperature: 97.0 F (36.1 C)
Heat index: 100.4 F (38.0 C):1
Dew Point: 66.0 F (18.9 C)
Relative Humidity: 36%
Pressure (altimeter): 29.99 in. Hg (1015 hPa)
Pressure tendency: 0.03 inches (1.0 hPa) lower than three hours ago
ob: KLAW 272053Z 07003KT 10SM CLR 36/19 A2999 RMK AO2 SLP140 T03610189 58010
cycle: 21

Station Type Date Time Source
KLAW TAF 2021/07/27 18:36 UTC NOAA

TAF KLAW 271734Z 2718/2818 09006KT P6SM SCT120 SCT250

Example: see airport list